createdAt,value
2022-10-15T00:00:18.640Z,60.32
2022-10-15T00:04:18.884Z,61.16
2022-10-15T00:08:21.734Z,61.56
2022-10-15T00:12:21.839Z,60.46
2022-10-15T00:16:25.606Z,61.06
2022-10-15T00:20:26.071Z,61.77
2022-10-15T00:24:28.957Z,60.56
2022-10-15T00:28:31.950Z,60.15
2022-10-15T00:32:35.100Z,60.69
2022-10-15T00:36:40.444Z,61.02
2022-10-15T00:40:44.282Z,60.69
2022-10-15T00:44:57.926Z,59.97
2022-10-15T00:49:05.369Z,60.52
2022-10-15T00:53:11.424Z,61.24
2022-10-15T00:57:16.214Z,60.92
2022-10-15T01:01:16.828Z,60.63
2022-10-15T01:05:19.907Z,60.85
2022-10-15T01:09:20.315Z,60.75
2022-10-15T01:13:36.927Z,60.55
2022-10-15T01:17:47.943Z,60.62
2022-10-15T01:21:57.308Z,61.97
2022-10-15T01:26:24.504Z,61.70
2022-10-15T01:30:30.668Z,61.50
2022-10-15T01:34:43.485Z,62.14
2022-10-15T01:39:01.135Z,61.61
2022-10-15T01:43:08.675Z,62.07
2022-10-15T01:47:27.423Z,61.73
2022-10-15T01:51:30.088Z,61.17
2022-10-15T01:55:34.526Z,61.89
2022-10-15T01:59:37.722Z,60.59
2022-10-15T02:03:51.141Z,61.10
2022-10-15T02:08:03.293Z,61.32
2022-10-15T02:12:24.538Z,61.33
2022-10-15T02:16:33.703Z,61.14
2022-10-15T02:20:45.168Z,61.53
2022-10-15T02:24:55.420Z,62.09
2022-10-15T02:29:02.820Z,61.42
2022-10-15T02:33:03.644Z,61.20
2022-10-15T02:37:09.922Z,61.85
2022-10-15T02:41:12.180Z,61.29
2022-10-15T02:45:13.597Z,62.41
2022-10-15T02:49:15.239Z,61.66
2022-10-15T02:53:18.007Z,62.28
2022-10-15T02:57:18.376Z,61.81
2022-10-15T03:01:19.470Z,61.36
2022-10-15T03:05:20.758Z,61.46
2022-10-15T03:09:24.146Z,60.97
2022-10-15T03:13:24.315Z,60.71
2022-10-15T03:17:26.381Z,60.58
2022-10-15T03:21:28.705Z,60.10
2022-10-15T03:25:37.102Z,60.14
2022-10-15T03:29:38.567Z,59.98
2022-10-15T03:33:38.836Z,59.98
2022-10-15T03:37:39.642Z,59.54
2022-10-15T03:46:11.053Z,59.86
2022-10-15T03:50:16.230Z,60.22
2022-10-15T03:54:17.247Z,59.65
2022-10-15T03:58:26.168Z,59.60
2022-10-15T04:02:30.330Z,59.54
2022-10-15T04:06:30.713Z,59.44
2022-10-15T04:10:36.321Z,58.97
2022-10-15T04:14:39.226Z,58.71
2022-10-15T04:18:39.512Z,58.76
2022-10-15T04:22:40.796Z,59.44
2022-10-15T04:26:41.742Z,60.90
2022-10-15T04:30:44.644Z,60.62
2022-10-15T04:34:46.964Z,61.23
2022-10-15T04:38:48.497Z,60.93
2022-10-15T04:42:56.200Z,61.52
2022-10-15T04:47:00.613Z,61.01
2022-10-15T04:51:19.126Z,61.08
2022-10-15T04:55:34.441Z,61.29
2022-10-15T04:59:36.141Z,61.10
2022-10-15T05:04:17.629Z,60.88
2022-10-15T05:08:17.817Z,61.74
2022-10-15T05:12:34.475Z,61.34
2022-10-15T05:16:35.396Z,61.16
2022-10-15T05:20:38.518Z,60.99
2022-10-15T05:24:39.051Z,61.08
2022-10-15T05:28:54.776Z,60.90
2022-10-15T05:32:59.320Z,60.80
2022-10-15T05:37:02.319Z,60.75
2022-10-15T05:41:02.438Z,60.24
2022-10-15T05:45:02.682Z,60.43
2022-10-15T05:49:02.980Z,60.37
2022-10-15T05:53:13.768Z,60.97
2022-10-15T05:57:22.069Z,60.77
2022-10-15T06:01:23.180Z,60.90
2022-10-15T06:05:26.653Z,60.62
2022-10-15T06:09:30.801Z,61.21
2022-10-15T06:13:30.982Z,61.31
2022-10-15T06:17:31.392Z,61.93
2022-10-15T06:21:31.703Z,62.11
2022-10-15T06:25:35.019Z,61.84
2022-10-15T06:29:35.124Z,62.49
2022-10-15T06:33:37.355Z,61.57
2022-10-15T06:37:37.646Z,61.76
2022-10-15T06:41:40.367Z,61.23
2022-10-15T06:45:45.203Z,61.75
2022-10-15T06:49:50.852Z,61.44
2022-10-15T06:53:51.054Z,61.50
2022-10-15T06:57:54.666Z,60.98
2022-10-15T07:01:55.575Z,61.84
2022-10-15T07:05:55.662Z,61.53
2022-10-15T07:09:56.073Z,61.57
2022-10-15T07:13:58.755Z,61.53
2022-10-15T07:18:01.633Z,61.16
2022-10-15T07:22:02.938Z,61.67
2022-10-15T07:26:04.193Z,61.46
2022-10-15T07:30:09.938Z,61.42
2022-10-15T07:34:10.229Z,61.32
2022-10-15T07:38:10.330Z,61.30
2022-10-15T07:46:13.661Z,61.04
2022-10-15T07:50:13.787Z,60.86
2022-10-15T07:54:13.861Z,59.69
2022-10-15T07:58:13.945Z,59.20
2022-10-15T08:02:19.792Z,59.48
2022-10-15T08:06:20.516Z,59.41
2022-10-15T08:10:20.948Z,59.22
2022-10-15T08:14:21.189Z,58.98
2022-10-15T08:18:24.081Z,59.00
2022-10-15T08:22:25.591Z,58.95
2022-10-15T08:26:29.314Z,59.29
2022-10-15T08:30:29.531Z,59.65
2022-10-15T08:34:32.298Z,58.93
2022-10-15T08:38:34.767Z,59.09
2022-10-15T08:42:40.232Z,59.43
2022-10-15T08:46:49.060Z,58.19
2022-10-15T08:50:59.773Z,58.86
2022-10-15T08:55:02.929Z,59.24
2022-10-15T08:59:16.176Z,60.13
2022-10-15T09:03:34.734Z,61.00
2022-10-15T09:07:45.114Z,60.56
2022-10-15T09:11:59.710Z,59.96
2022-10-15T09:16:16.456Z,60.00
2022-10-15T09:20:21.621Z,60.20
2022-10-15T09:24:32.889Z,60.35
2022-10-15T09:28:43.648Z,59.57
2022-10-15T09:32:55.790Z,59.06
2022-10-15T09:37:05.889Z,58.82
2022-10-15T09:41:27.528Z,58.74
2022-10-15T09:45:28.302Z,58.88
2022-10-15T09:49:35.448Z,58.85
2022-10-15T09:53:55.278Z,58.71
2022-10-15T09:58:04.589Z,57.75
2022-10-15T10:02:07.869Z,57.83
2022-10-15T10:06:12.488Z,57.56
2022-10-15T10:10:30.082Z,57.00
2022-10-15T10:14:36.558Z,57.59
2022-10-15T10:18:37.723Z,57.46
2022-10-15T10:22:50.523Z,57.17
2022-10-15T10:26:52.104Z,57.40
2022-10-15T10:31:04.516Z,55.35
2022-10-15T10:35:07.587Z,55.29
2022-10-15T10:39:28.271Z,55.49
2022-10-15T10:43:32.578Z,56.80
2022-10-15T10:47:40.127Z,56.85
2022-10-15T10:51:52.705Z,55.72
2022-10-15T10:55:54.651Z,55.23
2022-10-15T10:59:59.826Z,54.56
2022-10-15T11:04:02.617Z,53.52
2022-10-15T11:08:16.789Z,53.84
2022-10-15T11:12:55.947Z,54.10
2022-10-15T11:17:10.495Z,53.90
2022-10-15T11:21:29.996Z,55.04
2022-10-15T11:25:43.678Z,55.71
2022-10-15T11:29:56.511Z,56.73
2022-10-15T11:34:20.649Z,56.77
2022-10-15T11:38:36.767Z,55.17
2022-10-15T11:42:46.047Z,54.09
2022-10-15T11:46:56.399Z,54.59
2022-10-15T11:51:05.655Z,54.90
2022-10-15T11:55:20.285Z,54.48
2022-10-15T11:59:36.413Z,53.98
2022-10-15T12:03:48.330Z,54.46
2022-10-15T12:07:51.399Z,56.15
2022-10-15T12:12:08.242Z,55.67
2022-10-15T12:16:27.802Z,56.78
2022-10-15T12:20:29.980Z,57.02
2022-10-15T12:24:58.236Z,55.09
2022-10-15T12:29:05.341Z,54.12
2022-10-15T12:33:07.725Z,52.95
2022-10-15T12:37:18.464Z,48.97
2022-10-15T12:41:18.687Z,46.78
2022-10-15T12:45:34.639Z,45.54
2022-10-15T12:50:03.855Z,43.49
2022-10-15T12:54:04.246Z,45.72
2022-10-15T12:58:08.443Z,44.16
2022-10-15T13:02:38.867Z,43.33
2022-10-15T13:06:41.554Z,43.44
2022-10-15T13:10:50.615Z,44.89
2022-10-15T13:14:58.048Z,47.05
2022-10-15T13:19:00.822Z,48.51
2022-10-15T13:23:30.116Z,48.79
2022-10-15T13:27:34.736Z,48.42
2022-10-15T13:31:39.652Z,48.87
2022-10-15T13:35:43.114Z,49.21
2022-10-15T13:39:44.366Z,48.82
2022-10-15T13:43:58.881Z,48.68
2022-10-15T13:47:59.388Z,49.29
2022-10-15T13:52:02.106Z,49.01
2022-10-15T13:56:06.197Z,49.03
2022-10-15T14:00:08.118Z,49.59
2022-10-15T14:04:19.902Z,48.58
2022-10-15T14:08:27.378Z,48.82
2022-10-15T14:12:27.554Z,48.81
2022-10-15T14:16:32.366Z,49.93
2022-10-15T14:20:32.537Z,51.06
2022-10-15T14:24:39.298Z,51.63
2022-10-15T14:28:42.548Z,50.88
2022-10-15T14:32:51.714Z,51.08
2022-10-15T14:36:51.834Z,51.03
2022-10-15T14:41:07.729Z,51.32
2022-10-15T14:45:16.847Z,49.83
2022-10-15T14:49:27.454Z,48.84
2022-10-15T14:53:31.662Z,49.10
2022-10-15T14:57:39.617Z,47.16
2022-10-15T15:01:40.064Z,47.76
2022-10-15T15:05:49.966Z,48.09
2022-10-15T15:09:54.212Z,46.65
2022-10-15T15:13:57.514Z,44.24
2022-10-15T15:17:57.651Z,41.69
2022-10-15T15:21:58.318Z,42.58
2022-10-15T15:25:58.920Z,46.01
2022-10-15T15:30:02.015Z,47.50
2022-10-15T15:34:02.253Z,48.32
2022-10-15T15:38:02.361Z,50.02
2022-10-15T15:42:02.470Z,50.81
2022-10-15T15:46:05.321Z,51.07
2022-10-15T15:50:05.497Z,51.78
2022-10-15T15:54:07.315Z,51.34
2022-10-15T15:58:07.646Z,52.02
2022-10-15T16:02:10.589Z,53.35
2022-10-15T16:06:12.281Z,53.50
2022-10-15T16:10:13.971Z,53.85
2022-10-15T16:14:14.688Z,54.09
2022-10-15T16:18:17.364Z,54.61
2022-10-15T16:22:17.770Z,55.19
2022-10-15T16:26:18.102Z,55.48
2022-10-15T16:30:19.216Z,55.87
2022-10-15T16:34:22.208Z,55.73
2022-10-15T16:38:22.847Z,56.66
2022-10-15T16:42:22.987Z,56.08
2022-10-15T16:46:23.683Z,56.28
2022-10-15T16:50:26.513Z,56.14
2022-10-15T16:54:26.728Z,56.07
2022-10-15T16:58:26.894Z,56.60
2022-10-15T17:02:27.500Z,56.46
2022-10-15T17:06:34.026Z,56.52
2022-10-15T17:10:34.199Z,56.84
2022-10-15T17:14:34.430Z,56.51
2022-10-15T17:18:34.632Z,56.60
2022-10-15T17:22:37.856Z,56.63
2022-10-15T17:26:40.755Z,57.45
2022-10-15T17:30:41.474Z,57.40
2022-10-15T17:34:41.837Z,57.57
2022-10-15T17:38:45.146Z,57.26
2022-10-15T17:42:45.480Z,56.40
2022-10-15T17:46:45.934Z,55.40
2022-10-15T17:50:46.143Z,55.59
2022-10-15T17:54:48.861Z,55.64
2022-10-15T17:58:49.837Z,55.34
2022-10-15T18:02:52.628Z,56.09
2022-10-15T18:06:52.995Z,56.12
2022-10-15T18:11:01.708Z,56.04
2022-10-15T18:15:02.639Z,56.20
2022-10-15T18:19:02.853Z,56.03
2022-10-15T18:23:03.022Z,56.46
2022-10-15T18:27:06.564Z,56.16
2022-10-15T18:31:09.678Z,57.22
2022-10-15T18:35:11.094Z,57.14
2022-10-15T18:39:12.822Z,56.73
2022-10-15T18:43:18.784Z,57.29
2022-10-15T18:47:19.760Z,56.57
2022-10-15T18:51:20.749Z,56.71
2022-10-15T18:55:21.866Z,56.55
2022-10-15T18:59:24.659Z,56.01
2022-10-15T19:03:25.493Z,56.48
2022-10-15T19:07:25.958Z,57.21
2022-10-15T19:11:26.552Z,58.19
2022-10-15T19:15:29.657Z,59.63
2022-10-15T19:19:32.106Z,59.52
2022-10-15T19:23:32.703Z,59.70
2022-10-15T19:27:32.863Z,59.88
2022-10-15T19:31:39.980Z,59.57
2022-10-15T19:35:44.526Z,59.44
2022-10-15T19:39:48.363Z,59.14
2022-10-15T19:43:50.125Z,59.25
2022-10-15T19:47:59.873Z,59.72
2022-10-15T19:52:02.878Z,59.30
2022-10-15T19:56:06.044Z,59.35
2022-10-15T20:00:07.900Z,59.40
2022-10-15T20:04:15.196Z,59.89
2022-10-15T20:08:16.297Z,59.99
2022-10-15T20:12:16.617Z,60.23
2022-10-15T20:16:19.539Z,59.96
2022-10-15T20:20:24.951Z,59.94
2022-10-15T20:24:25.283Z,59.71
2022-10-15T20:28:25.517Z,59.71
2022-10-15T20:32:41.418Z,60.31
2022-10-15T20:36:44.507Z,59.31
2022-10-15T20:40:44.749Z,59.11
2022-10-15T20:44:45.305Z,59.79
2022-10-15T20:48:48.856Z,59.92
2022-10-15T20:52:51.851Z,59.68
2022-10-15T20:56:52.833Z,59.59
2022-10-15T21:00:52.913Z,59.37
2022-10-15T21:04:53.525Z,59.30
2022-10-15T21:08:56.313Z,59.92
2022-10-15T21:12:56.430Z,59.98
2022-10-15T21:16:56.530Z,59.60
2022-10-15T21:20:56.871Z,59.24
2022-10-15T21:24:59.592Z,59.08
2022-10-15T21:29:01.982Z,59.88
2022-10-15T21:33:02.185Z,59.23
2022-10-15T21:37:02.322Z,59.81
2022-10-15T21:41:07.557Z,60.12
2022-10-15T21:45:09.092Z,60.14
2022-10-15T21:49:09.395Z,59.49
2022-10-15T21:53:09.669Z,59.19
2022-10-15T21:57:13.925Z,59.21
2022-10-15T22:01:19.297Z,59.98
2022-10-15T22:05:20.051Z,59.42
2022-10-15T22:09:20.390Z,59.59
2022-10-15T22:13:23.082Z,59.05
2022-10-15T22:17:23.190Z,58.82
2022-10-15T22:21:26.461Z,59.34
2022-10-15T22:25:26.509Z,58.95
2022-10-15T22:29:35.201Z,59.50
2022-10-15T22:33:37.418Z,59.46
2022-10-15T22:37:38.986Z,58.93
2022-10-15T22:41:42.791Z,59.47
2022-10-15T22:45:45.698Z,59.74
2022-10-15T22:49:45.802Z,60.13
2022-10-15T22:53:46.382Z,60.29
2022-10-15T22:57:47.563Z,60.40
2022-10-15T23:01:50.617Z,59.96
2022-10-15T23:05:55.273Z,60.18
2022-10-15T23:09:56.510Z,60.64
2022-10-15T23:13:59.804Z,59.76
2022-10-15T23:18:02.754Z,59.69
2022-10-15T23:22:03.537Z,59.65
2022-10-15T23:26:03.595Z,60.16
2022-10-15T23:30:14.500Z,59.21
2022-10-15T23:34:28.914Z,59.82
2022-10-15T23:38:30.358Z,59.33
2022-10-15T23:42:32.062Z,58.63
2022-10-15T23:46:32.608Z,59.14
2022-10-15T23:50:39.731Z,59.15
2022-10-15T23:54:42.453Z,60.00
2022-10-15T23:58:43.868Z,59.94
